Time;durP1;ratioP1;P1;durP2;ratioP2;P2;SDS_P1;SDS_P2;PMS_P1;PMS_P2;Temp;Humidity;BMP_temperature;BMP_pressure;BME280_temperature;BME280_humidity;BME280_pressure;Samples;Min_cycle;Max_cycle;Signal;HPM_P1;HPM_P2
2020/12/20 00:01:01;;;;;;;19.67;11.50;;;2.00;99.90;;;;;;5007383;28;20262;-80
2020/12/20 00:03:28;;;;;;;18.93;12.00;;;2.00;99.90;;;;;;5008114;28;20229;-80
2020/12/20 00:05:54;;;;;;;19.63;12.67;;;2.00;99.90;;;;;;5010150;28;20713;-80
2020/12/20 00:08:23;;;;;;;18.30;11.90;;;2.00;99.90;;;;;;5016063;28;20248;-80
2020/12/20 00:10:50;;;;;;;18.87;12.40;;;2.00;99.90;;;;;;5016187;28;20279;-80
2020/12/20 00:13:17;;;;;;;18.60;12.17;;;2.00;99.90;;;;;;5016517;28;20197;-80
2020/12/20 00:15:44;;;;;;;22.43;12.63;;;2.00;99.90;;;;;;5017958;28;20209;-81
2020/12/20 00:18:11;;;;;;;19.30;12.43;;;2.00;99.90;;;;;;5016274;28;20213;-81
2020/12/20 00:20:39;;;;;;;21.40;13.17;;;2.10;99.90;;;;;;5016553;28;20205;-80
2020/12/20 00:23:06;;;;;;;21.40;13.90;;;2.00;99.90;;;;;;5016441;28;20228;-80
2020/12/20 00:25:33;;;;;;;20.40;12.13;;;2.00;99.90;;;;;;5016561;28;20243;-80
2020/12/20 00:28:00;;;;;;;21.10;13.10;;;2.00;99.90;;;;;;5016920;28;20201;-80
2020/12/20 00:30:27;;;;;;;24.63;13.93;;;2.00;99.90;;;;;;5017441;28;20617;-80
2020/12/20 00:32:54;;;;;;;20.73;12.97;;;2.00;99.90;;;;;;5017229;28;20197;-80
2020/12/20 00:35:21;;;;;;;24.13;13.20;;;2.00;99.90;;;;;;5016955;28;20563;-80
2020/12/20 00:37:48;;;;;;;21.70;12.00;;;2.00;99.90;;;;;;4999740;28;20722;-80
2020/12/20 00:40:15;;;;;;;19.50;12.00;;;2.00;99.90;;;;;;4998640;28;20197;-81
2020/12/20 00:42:42;;;;;;;16.73;10.80;;;2.10;99.90;;;;;;4999770;28;20765;-81
2020/12/20 00:45:08;;;;;;;21.57;12.13;;;2.10;99.90;;;;;;4999731;28;20221;-80
2020/12/20 00:47:36;;;;;;;22.27;13.77;;;2.10;99.90;;;;;;4998950;28;20201;-80
2020/12/20 00:50:04;;;;;;;19.20;12.93;;;2.10;99.90;;;;;;4999162;28;20202;-80
2020/12/20 00:52:31;;;;;;;19.47;11.50;;;2.10;99.90;;;;;;5004369;28;20233;-80
2020/12/20 00:54:58;;;;;;;22.63;12.57;;;2.10;99.90;;;;;;5003057;28;20213;-80
2020/12/20 00:57:25;;;;;;;18.83;11.43;;;2.10;99.90;;;;;;5005086;28;20263;-81
2020/12/20 00:59:51;;;;;;;16.60;10.97;;;2.00;99.90;;;;;;5003940;28;20221;-81
2020/12/20 01:02:18;;;;;;;21.47;12.67;;;2.00;99.90;;;;;;5004861;28;20194;-81
2020/12/20 01:04:45;;;;;;;16.93;10.87;;;2.00;99.90;;;;;;5019259;28;20225;-81
2020/12/20 01:07:12;;;;;;;17.63;12.23;;;2.00;99.90;;;;;;5025401;28;20201;-80
2020/12/20 01:09:41;;;;;;;17.67;11.60;;;2.00;99.90;;;;;;5025501;28;20211;-81
2020/12/20 01:12:07;;;;;;;17.90;12.00;;;2.00;99.90;;;;;;5026584;28;20733;-80
2020/12/20 01:14:34;;;;;;;21.57;12.20;;;2.00;99.90;;;;;;5025511;28;20239;-80
2020/12/20 01:17:05;;;;;;;17.93;11.67;;;2.00;99.90;;;;;;5018922;28;20248;-80
2020/12/20 01:19:39;;;;;;;17.63;10.87;;;2.00;99.90;;;;;;5018173;28;20212;-80
2020/12/20 01:22:06;;;;;;;19.43;12.03;;;2.00;99.90;;;;;;5016141;28;20201;-80
2020/12/20 01:24:33;;;;;;;18.77;11.33;;;2.00;99.90;;;;;;5016229;28;20228;-80
2020/12/20 01:27:00;;;;;;;14.87;10.20;;;2.00;99.90;;;;;;5030446;28;20287;-81
2020/12/20 01:29:27;;;;;;;14.73;10.50;;;2.00;99.90;;;;;;5035788;28;20201;-80
2020/12/20 01:31:54;;;;;;;16.80;11.23;;;2.00;99.90;;;;;;5036571;28;20193;-80
2020/12/20 01:34:20;;;;;;;17.30;11.43;;;2.00;99.90;;;;;;5026065;28;20682;-81
2020/12/20 01:36:48;;;;;;;18.57;11.87;;;2.00;99.90;;;;;;5016357;28;20205;-80
2020/12/20 01:39:17;;;;;;;19.07;10.97;;;2.00;99.90;;;;;;5016699;28;20247;-80
2020/12/20 01:41:45;;;;;;;15.20;9.63;;;2.10;99.90;;;;;;5017055;28;20205;-80
2020/12/20 01:44:12;;;;;;;15.73;10.67;;;2.10;99.90;;;;;;5015431;28;20216;-80
2020/12/20 01:46:43;;;;;;;17.13;11.47;;;2.10;99.90;;;;;;5016139;28;20205;-80
2020/12/20 01:49:11;;;;;;;15.87;10.20;;;2.00;99.90;;;;;;5016683;28;20197;-80
2020/12/20 01:51:39;;;;;;;15.27;9.90;;;2.00;99.90;;;;;;5016245;28;20271;-80
2020/12/20 01:54:09;;;;;;;15.10;10.10;;;2.00;99.90;;;;;;5017340;28;20205;-80
2020/12/20 01:56:37;;;;;;;14.23;9.17;;;2.00;99.90;;;;;;5017121;28;20560;-81
2020/12/20 01:59:03;;;;;;;13.30;9.80;;;2.00;99.90;;;;;;5016751;28;20225;-80
2020/12/20 02:01:30;;;;;;;13.10;9.57;;;2.00;99.90;;;;;;5017418;28;20259;-80
2020/12/20 02:03:57;;;;;;;15.27;9.87;;;1.90;99.90;;;;;;5019167;28;20248;-80
2020/12/20 02:06:23;;;;;;;14.27;9.93;;;2.00;99.90;;;;;;5017094;28;20259;-80
2020/12/20 02:08:50;;;;;;;14.00;9.60;;;2.00;99.90;;;;;;5017215;28;20240;-80
2020/12/20 02:11:17;;;;;;;16.17;9.83;;;2.00;99.90;;;;;;5018132;28;20205;-80
2020/12/20 02:13:46;;;;;;;14.80;8.83;;;2.00;99.90;;;;;;5016941;28;20682;-81
2020/12/20 02:16:18;;;;;;;16.43;10.20;;;1.90;99.90;;;;;;5017506;28;20201;-80
2020/12/20 02:18:46;;;;;;;12.77;9.07;;;1.90;99.90;;;;;;5018389;28;20212;-81
2020/12/20 02:21:22;;;;;;;15.67;9.97;;;1.90;99.90;;;;;;5017549;28;20205;-80
2020/12/20 02:23:50;;;;;;;12.80;8.83;;;2.00;99.90;;;;;;5017296;28;20209;-80
2020/12/20 02:26:19;;;;;;;14.63;8.93;;;1.90;99.90;;;;;;5027272;28;20205;-81
2020/12/20 02:28:52;;;;;;;13.80;8.57;;;1.90;99.90;;;;;;5037922;28;20206;-81
2020/12/20 02:31:20;;;;;;;13.33;8.77;;;1.90;99.90;;;;;;5037328;28;20200;-80
2020/12/20 02:33:48;;;;;;;11.67;9.00;;;1.90;99.90;;;;;;5031019;28;20489;-80
2020/12/20 02:36:15;;;;;;;12.73;9.20;;;1.90;99.90;;;;;;5017262;28;20239;-81
2020/12/20 02:38:42;;;;;;;13.63;8.50;;;1.90;99.90;;;;;;5018724;28;20219;-81
2020/12/20 02:41:10;;;;;;;10.17;8.03;;;1.90;99.90;;;;;;5019315;28;20224;-80
2020/12/20 02:43:38;;;;;;;16.13;9.53;;;1.90;99.90;;;;;;5017925;28;20217;-80
2020/12/20 02:46:05;;;;;;;10.57;8.03;;;1.90;99.90;;;;;;5019187;28;20741;-80
2020/12/20 02:48:32;;;;;;;12.77;8.50;;;1.90;99.90;;;;;;5019581;28;20423;-80
2020/12/20 02:50:59;;;;;;;13.30;9.20;;;1.90;99.90;;;;;;5016417;28;20315;-80
2020/12/20 02:53:25;;;;;;;14.03;8.70;;;1.90;99.90;;;;;;5015075;28;20200;-80
2020/12/20 02:55:53;;;;;;;12.80;8.23;;;1.90;99.90;;;;;;5015868;28;20655;-80
2020/12/20 02:58:20;;;;;;;10.00;7.10;;;1.90;99.90;;;;;;5015712;28;20212;-80
2020/12/20 03:00:47;;;;;;;11.37;8.20;;;1.90;99.90;;;;;;5016419;28;20299;-80
2020/12/20 03:03:13;;;;;;;11.50;8.37;;;1.90;99.90;;;;;;5013440;28;20205;-79
2020/12/20 03:05:40;;;;;;;14.57;8.77;;;1.90;99.90;;;;;;5010810;28;20224;-79
2020/12/20 03:08:07;;;;;;;11.70;7.80;;;1.90;99.90;;;;;;5012199;28;20581;-79
2020/12/20 03:10:34;;;;;;;11.07;7.63;;;1.90;99.90;;;;;;5011775;28;20800;-79
2020/12/20 03:13:00;;;;;;;11.37;8.07;;;1.90;99.90;;;;;;5009341;28;20601;-78
2020/12/20 03:15:27;;;;;;;13.07;8.40;;;1.90;99.90;;;;;;5007938;28;20259;-79
2020/12/20 03:17:54;;;;;;;9.30;7.03;;;1.90;99.90;;;;;;5008835;28;20196;-78
2020/12/20 03:20:21;;;;;;;10.70;8.00;;;1.90;99.90;;;;;;5008194;28;20201;-78
2020/12/20 03:22:49;;;;;;;9.67;7.17;;;1.90;99.90;;;;;;5009184;28;20204;-77
2020/12/20 03:25:15;;;;;;;10.73;7.20;;;1.90;99.90;;;;;;5008680;28;20252;-79
2020/12/20 03:27:51;;;;;;;10.60;7.50;;;1.80;99.90;;;;;;5008691;28;20646;-80
2020/12/20 03:30:19;;;;;;;10.50;7.63;;;1.90;99.90;;;;;;5008123;28;20912;-79
2020/12/20 03:32:45;;;;;;;10.43;7.70;;;1.90;99.90;;;;;;5007992;28;20197;-80
2020/12/20 03:35:12;;;;;;;10.57;7.07;;;1.90;99.90;;;;;;5008386;28;20639;-80
2020/12/20 03:37:49;;;;;;;7.90;6.70;;;1.90;99.90;;;;;;5008057;28;20209;-79
2020/12/20 03:40:16;;;;;;;9.80;7.10;;;1.90;99.90;;;;;;5015147;28;20205;-80
2020/12/20 03:42:46;;;;;;;8.20;6.03;;;1.90;99.90;;;;;;5017403;28;20267;-80
2020/12/20 03:45:15;;;;;;;7.80;6.00;;;1.90;99.90;;;;;;5018009;28;20642;-81
2020/12/20 03:47:43;;;;;;;10.43;6.93;;;1.80;99.90;;;;;;5018745;28;20224;-80
2020/12/20 03:50:11;;;;;;;9.17;6.60;;;1.90;99.90;;;;;;5019861;28;20235;-80
2020/12/20 03:52:38;;;;;;;9.67;6.93;;;1.90;99.90;;;;;;5018830;28;20240;-81
2020/12/20 03:55:06;;;;;;;8.30;6.30;;;1.90;99.90;;;;;;5019146;28;20205;-81
2020/12/20 03:57:33;;;;;;;7.50;6.17;;;1.90;99.90;;;;;;5018707;28;20204;-80
2020/12/20 04:00:00;;;;;;;9.17;6.67;;;1.90;99.90;;;;;;5018760;28;20316;-80
2020/12/20 04:02:26;;;;;;;8.37;6.70;;;1.80;99.90;;;;;;5020340;28;20737;-81
2020/12/20 04:04:53;;;;;;;7.50;5.93;;;1.80;99.90;;;;;;5019327;28;20228;-81
2020/12/20 04:07:20;;;;;;;8.20;6.63;;;1.80;99.90;;;;;;5020663;28;20240;-80
2020/12/20 04:09:48;;;;;;;8.87;6.50;;;1.80;99.90;;;;;;5019978;28;20232;-80
2020/12/20 04:12:15;;;;;;;8.37;6.80;;;1.80;99.90;;;;;;5021557;28;20224;-81
2020/12/20 04:14:43;;;;;;;9.77;7.00;;;1.80;99.90;;;;;;5020137;28;20235;-81
2020/12/20 04:17:10;;;;;;;9.03;6.87;;;1.80;99.90;;;;;;5020842;28;20205;-81
2020/12/20 04:19:37;;;;;;;9.33;6.87;;;1.80;99.90;;;;;;5021422;28;20217;-80
2020/12/20 04:22:04;;;;;;;9.50;6.77;;;1.80;99.90;;;;;;5022886;28;20220;-80
2020/12/20 04:24:31;;;;;;;9.07;6.97;;;1.80;99.90;;;;;;5020152;28;20229;-81
2020/12/20 04:26:59;;;;;;;9.13;6.73;;;1.80;99.90;;;;;;5013218;28;20233;-80
2020/12/20 04:29:26;;;;;;;11.13;7.40;;;1.80;99.90;;;;;;5014353;28;20236;-80
2020/12/20 04:31:53;;;;;;;10.13;6.73;;;1.80;99.90;;;;;;5015686;28;20366;-80
2020/12/20 04:34:19;;;;;;;9.57;6.63;;;1.80;99.90;;;;;;5013162;28;20214;-80
2020/12/20 04:36:46;;;;;;;9.33;7.07;;;1.80;99.90;;;;;;5013292;28;20244;-80
2020/12/20 04:39:13;;;;;;;10.17;6.90;;;1.80;99.90;;;;;;5012432;28;20215;-80
2020/12/20 04:41:40;;;;;;;7.90;6.43;;;1.80;99.90;;;;;;5012931;28;20240;-80
2020/12/20 04:44:06;;;;;;;9.43;7.30;;;1.80;99.90;;;;;;5012856;28;20239;-80
2020/12/20 04:46:35;;;;;;;9.07;5.90;;;1.80;99.90;;;;;;5014150;28;20231;-80
2020/12/20 04:49:03;;;;;;;10.10;7.07;;;1.80;99.90;;;;;;5012324;28;20228;-81
2020/12/20 04:51:49;;;;;;;10.30;7.07;;;1.80;99.90;;;;;;5013552;28;20181;-81
2020/12/20 04:54:17;;;;;;;9.80;7.17;;;1.80;99.90;;;;;;5013086;28;20204;-80
2020/12/20 04:56:45;;;;;;;9.30;6.83;;;1.80;99.90;;;;;;5013372;28;20201;-80
2020/12/20 04:59:12;;;;;;;11.03;7.77;;;1.80;99.90;;;;;;5014579;28;20268;-81
2020/12/20 05:01:40;;;;;;;8.30;6.60;;;1.80;99.90;;;;;;5013876;28;20232;-80
2020/12/20 05:04:07;;;;;;;8.10;6.63;;;1.80;99.90;;;;;;5023851;28;20220;-81
2020/12/20 05:06:35;;;;;;;8.93;6.43;;;1.80;99.90;;;;;;5035437;28;20207;-80
2020/12/20 05:09:04;;;;;;;8.33;6.17;;;1.80;99.90;;;;;;5035201;28;20200;-80
2020/12/20 05:11:35;;;;;;;7.90;6.07;;;1.80;99.90;;;;;;5026718;28;20194;-81
2020/12/20 05:14:04;;;;;;;10.10;6.33;;;1.80;99.90;;;;;;5015010;28;20189;-80
2020/12/20 05:16:36;;;;;;;8.97;6.67;;;1.80;99.90;;;;;;5015958;28;20718;-80
2020/12/20 05:19:06;;;;;;;7.37;5.67;;;1.80;99.90;;;;;;5016654;28;20200;-81
2020/12/20 05:21:34;;;;;;;11.13;6.47;;;1.80;99.90;;;;;;5014851;28;20212;-80
2020/12/20 05:24:25;;;;;;;6.60;5.87;;;1.80;99.90;;;;;;5014426;28;20229;-80
2020/12/20 05:26:51;;;;;;;7.30;5.47;;;1.80;99.90;;;;;;5028412;28;20192;-81
2020/12/20 05:29:25;;;;;;;7.17;5.70;;;1.80;99.90;;;;;;5035511;28;20208;-80
2020/12/20 05:31:53;;;;;;;8.10;5.77;;;1.80;99.90;;;;;;5035951;28;21016;-80
2020/12/20 05:34:23;;;;;;;7.87;5.53;;;1.80;99.90;;;;;;5024581;28;20209;-80
2020/12/20 05:36:50;;;;;;;7.30;5.87;;;1.80;99.90;;;;;;5015814;28;20201;-81
2020/12/20 05:39:19;;;;;;;8.80;6.70;;;1.80;99.90;;;;;;5019776;28;20359;-80
2020/12/20 05:41:47;;;;;;;8.23;5.90;;;1.80;99.90;;;;;;5021504;28;20663;-81
2020/12/20 05:44:16;;;;;;;8.07;5.97;;;1.80;99.90;;;;;;5021404;28;20666;-80
2020/12/20 05:46:45;;;;;;;8.47;6.57;;;1.80;99.90;;;;;;5020101;28;20196;-80
2020/12/20 05:49:23;;;;;;;8.67;6.57;;;1.80;99.90;;;;;;5019757;28;20224;-80
2020/12/20 05:52:10;;;;;;;8.67;6.57;;;1.80;99.90;;;;;;5019583;28;20190;-80
2020/12/20 05:54:39;;;;;;;8.13;6.50;;;1.80;99.90;;;;;;5020094;28;20205;-81
2020/12/20 05:57:08;;;;;;;9.17;7.07;;;1.90;99.90;;;;;;5020467;28;20270;-81
2020/12/20 05:59:35;;;;;;;7.93;5.70;;;1.80;99.90;;;;;;5017891;28;20284;-79
2020/12/20 06:02:05;;;;;;;8.90;6.37;;;1.90;99.90;;;;;;5017031;28;20252;-79
2020/12/20 06:04:33;;;;;;;10.03;7.33;;;1.90;99.90;;;;;;5015256;28;20714;-81
2020/12/20 06:07:00;;;;;;;8.00;6.20;;;1.80;99.90;;;;;;5017259;28;20259;-80
2020/12/20 06:09:29;;;;;;;8.17;5.67;;;1.80;99.90;;;;;;5016777;28;20662;-80
2020/12/20 06:11:58;;;;;;;7.53;5.87;;;1.80;99.90;;;;;;5016959;28;20203;-80
2020/12/20 06:14:29;;;;;;;9.77;6.27;;;1.80;99.90;;;;;;5017252;28;20240;-80
2020/12/20 06:17:18;;;;;;;8.40;6.43;;;1.80;99.90;;;;;;5017335;28;20197;-80
2020/12/20 06:19:55;;;;;;;7.13;5.70;;;1.80;99.90;;;;;;5016638;28;20185;-81
2020/12/20 06:22:28;;;;;;;9.73;5.93;;;1.80;99.90;;;;;;5017215;28;20828;-80
2020/12/20 06:25:03;;;;;;;6.50;5.20;;;1.80;99.90;;;;;;5017423;28;20737;-80
2020/12/20 06:27:32;;;;;;;8.83;6.40;;;1.80;99.90;;;;;;5017813;28;20521;-80
2020/12/20 06:30:05;;;;;;;7.30;5.90;;;1.80;99.90;;;;;;5017955;28;20197;-80
2020/12/20 06:32:45;;;;;;;8.37;6.40;;;1.80;99.90;;;;;;5019781;28;20224;-80
2020/12/20 06:35:29;;;;;;;8.47;6.10;;;1.80;99.90;;;;;;5019967;28;20213;-80
2020/12/20 06:37:57;;;;;;;6.63;5.30;;;1.80;99.90;;;;;;5019553;28;20200;-80
2020/12/20 06:40:30;;;;;;;7.53;5.53;;;1.80;99.90;;;;;;5018241;28;20205;-80
2020/12/20 06:42:59;;;;;;;7.63;5.23;;;1.80;99.90;;;;;;5020853;28;20630;-79
2020/12/20 06:45:27;;;;;;;7.63;5.87;;;1.80;99.90;;;;;;5019026;28;20281;-80
2020/12/20 06:48:01;;;;;;;8.13;4.83;;;1.80;99.90;;;;;;5019641;28;20666;-80
2020/12/20 06:50:49;;;;;;;7.63;5.93;;;1.80;99.90;;;;;;5021032;28;20190;-81
2020/12/20 06:53:18;;;;;;;7.00;5.83;;;1.70;99.90;;;;;;5021604;28;20186;-80
2020/12/20 06:55:46;;;;;;;6.80;5.90;;;1.80;99.90;;;;;;5019682;28;20204;-80
2020/12/20 06:58:16;;;;;;;7.03;5.40;;;1.80;99.90;;;;;;5019574;28;20269;-80
2020/12/20 07:00:55;;;;;;;9.27;5.97;;;1.70;99.90;;;;;;5014255;28;20240;-80
2020/12/20 07:03:24;;;;;;;7.13;5.20;;;1.80;99.90;;;;;;5009167;28;20266;-80
2020/12/20 07:05:54;;;;;;;8.60;5.87;;;1.80;99.90;;;;;;5008373;28;20220;-79
2020/12/20 07:08:27;;;;;;;6.53;5.43;;;1.80;99.90;;;;;;5008346;28;20193;-79
2020/12/20 07:10:57;;;;;;;7.30;5.40;;;1.80;99.90;;;;;;5008165;28;20232;-79
2020/12/20 07:13:38;;;;;;;9.07;6.00;;;1.80;99.90;;;;;;5016941;28;20614;-81
2020/12/20 07:16:09;;;;;;;9.57;5.90;;;1.80;99.90;;;;;;5020772;28;20240;-81
2020/12/20 07:18:43;;;;;;;7.00;5.40;;;1.80;99.90;;;;;;5020950;28;20197;-80
2020/12/20 07:21:39;;;;;;;6.90;5.13;;;1.80;99.90;;;;;;5021465;28;20200;-80
2020/12/20 07:24:27;;;;;;;8.10;5.83;;;1.80;99.90;;;;;;5021852;28;20275;-80
2020/12/20 07:26:56;;;;;;;6.37;5.40;;;1.80;99.90;;;;;;5023642;28;20200;-80
2020/12/20 07:29:25;;;;;;;6.60;5.30;;;1.80;99.90;;;;;;5022541;28;20655;-80
2020/12/20 07:31:54;;;;;;;7.00;5.50;;;1.70;99.90;;;;;;5022885;28;20224;-80
2020/12/20 07:34:23;;;;;;;7.83;6.00;;;1.80;99.90;;;;;;5022018;28;20750;-79
2020/12/20 07:36:51;;;;;;;6.40;5.30;;;1.80;99.90;;;;;;5028544;28;20244;-79
2020/12/20 07:39:19;;;;;;;6.10;5.50;;;1.80;99.90;;;;;;5028108;28;20208;-79
2020/12/20 07:41:45;;;;;;;6.30;4.97;;;1.80;99.90;;;;;;5027785;28;20287;-79
2020/12/20 07:44:14;;;;;;;7.43;6.00;;;1.80;99.90;;;;;;5028308;28;20647;-79
2020/12/20 07:46:42;;;;;;;6.40;5.23;;;1.80;99.90;;;;;;5027197;28;20210;-79
2020/12/20 07:49:13;;;;;;;7.33;5.40;;;1.80;99.90;;;;;;5031715;28;20654;-79
2020/12/20 07:51:41;;;;;;;8.00;5.60;;;1.80;99.90;;;;;;5034121;28;20844;-80
2020/12/20 07:54:13;;;;;;;6.30;4.80;;;1.80;99.90;;;;;;5034486;28;20200;-79
2020/12/20 07:56:47;;;;;;;6.40;5.13;;;1.80;99.90;;;;;;5035043;28;20646;-80
2020/12/20 07:59:19;;;;;;;7.23;5.77;;;1.80;99.90;;;;;;5034087;28;20228;-79
2020/12/20 08:01:48;;;;;;;9.20;6.40;;;1.80;99.90;;;;;;5033458;28;20251;-80
2020/12/20 08:04:21;;;;;;;8.23;5.77;;;1.80;99.90;;;;;;5024412;28;20224;-80
2020/12/20 08:06:49;;;;;;;6.60;5.70;;;1.80;99.90;;;;;;5014697;28;20192;-80
2020/12/20 08:09:26;;;;;;;6.67;5.43;;;1.80;99.90;;;;;;5015305;28;20593;-80
2020/12/20 08:11:54;;;;;;;7.30;5.73;;;1.90;99.90;;;;;;5015368;28;20209;-79
2020/12/20 08:14:22;;;;;;;8.87;5.87;;;1.80;99.90;;;;;;5015507;28;20227;-79
2020/12/20 08:16:50;;;;;;;7.47;5.90;;;1.90;99.90;;;;;;5014448;28;20220;-80
2020/12/20 08:19:31;;;;;;;6.57;5.50;;;1.90;99.90;;;;;;5015547;28;20200;-81
2020/12/20 08:22:07;;;;;;;6.50;5.10;;;1.90;99.90;;;;;;5016179;28;20220;-81
2020/12/20 08:24:46;;;;;;;6.90;5.53;;;1.90;99.90;;;;;;5015708;28;20205;-80
2020/12/20 08:27:17;;;;;;;6.90;5.50;;;1.90;99.90;;;;;;5018153;28;20209;-80
2020/12/20 08:29:46;;;;;;;7.90;5.93;;;1.90;99.90;;;;;;5018421;28;20197;-80
2020/12/20 08:32:19;;;;;;;6.13;5.53;;;1.90;99.90;;;;;;5017224;28;20542;-80
2020/12/20 08:34:47;;;;;;;7.57;5.83;;;1.90;99.90;;;;;;5017153;28;20208;-80
2020/12/20 08:37:16;;;;;;;5.83;4.23;;;1.90;99.90;;;;;;5017023;28;20608;-81
2020/12/20 08:39:43;;;;;;;6.90;5.70;;;1.90;99.90;;;;;;5016241;28;20208;-81
2020/12/20 08:42:16;;;;;;;7.37;4.43;;;1.90;99.90;;;;;;5017214;28;20201;-80
2020/12/20 08:44:45;;;;;;;6.23;4.93;;;1.90;99.90;;;;;;5016723;28;20713;-81
2020/12/20 08:47:19;;;;;;;7.20;5.37;;;1.90;99.90;;;;;;5017244;28;20201;-80
2020/12/20 08:49:57;;;;;;;7.57;5.13;;;1.90;99.90;;;;;;5017691;28;20728;-80
2020/12/20 08:52:29;;;;;;;6.40;4.30;;;1.90;99.90;;;;;;5018705;28;20204;-80
2020/12/20 08:54:57;;;;;;;6.00;4.40;;;1.90;99.90;;;;;;5017961;28;20554;-80
2020/12/20 08:57:26;;;;;;;7.03;4.87;;;1.90;99.90;;;;;;5018561;28;20287;-80
2020/12/20 08:59:53;;;;;;;5.37;4.23;;;1.90;99.90;;;;;;5018226;28;20637;-80
2020/12/20 09:02:25;;;;;;;6.43;4.73;;;1.90;99.90;;;;;;5018303;28;20193;-81
2020/12/20 09:04:55;;;;;;;6.87;4.83;;;1.90;99.90;;;;;;5018264;28;20278;-80
2020/12/20 09:07:49;;;;;;;6.70;5.07;;;1.90;99.90;;;;;;5017928;28;20468;-80
2020/12/20 09:10:25;;;;;;;8.40;5.00;;;1.90;99.90;;;;;;5014197;28;20181;-80
2020/12/20 09:12:52;;;;;;;5.70;4.20;;;1.90;99.90;;;;;;5017223;28;20523;-79
2020/12/20 09:15:29;;;;;;;6.10;4.70;;;1.90;99.90;;;;;;5017857;28;20200;-79
2020/12/20 09:17:58;;;;;;;5.73;4.67;;;1.90;99.90;;;;;;5018862;28;20204;-79
2020/12/20 09:20:29;;;;;;;7.87;5.40;;;2.00;99.90;;;;;;5017780;28;20236;-79
2020/12/20 09:23:02;;;;;;;6.03;4.43;;;2.00;99.90;;;;;;5018291;28;20690;-80
2020/12/20 09:25:35;;;;;;;5.43;4.23;;;2.00;99.90;;;;;;5019980;28;20220;-79
2020/12/20 09:28:09;;;;;;;5.60;4.53;;;2.00;99.90;;;;;;5038215;28;20979;-79
2020/12/20 09:30:39;;;;;;;8.10;5.00;;;2.00;99.90;;;;;;5038351;28;20184;-80
2020/12/20 09:33:21;;;;;;;6.23;5.17;;;2.00;99.90;;;;;;5037222;28;20247;-80
2020/12/20 09:36:01;;;;;;;7.23;5.20;;;2.00;99.90;;;;;;5020475;28;20185;-81
2020/12/20 09:38:43;;;;;;;8.17;5.43;;;2.00;99.90;;;;;;5019717;28;20205;-80
2020/12/20 09:41:12;;;;;;;7.63;5.27;;;2.00;99.90;;;;;;5019858;28;20196;-80
2020/12/20 09:43:41;;;;;;;6.77;5.37;;;2.00;99.90;;;;;;5021131;28;20236;-80
2020/12/20 09:46:09;;;;;;;7.20;5.27;;;2.00;99.90;;;;;;5019192;28;20240;-79
2020/12/20 09:48:36;;;;;;;6.83;5.30;;;2.00;99.90;;;;;;5020821;28;20201;-80
2020/12/20 09:51:03;;;;;;;7.03;5.10;;;2.10;99.90;;;;;;5019600;28;20264;-79
2020/12/20 09:53:30;;;;;;;7.70;5.40;;;2.10;99.90;;;;;;5027273;28;20208;-80
2020/12/20 09:55:57;;;;;;;6.80;5.23;;;2.00;99.90;;;;;;5039621;28;20207;-80
2020/12/20 09:58:27;;;;;;;6.70;5.50;;;2.00;99.90;;;;;;5040640;28;20200;-80
2020/12/20 10:00:54;;;;;;;7.73;5.63;;;2.10;99.90;;;;;;5041430;28;20920;-80
2020/12/20 10:03:21;;;;;;;6.80;5.20;;;2.10;99.90;;;;;;5036662;28;20743;-80
2020/12/20 10:05:48;;;;;;;8.87;6.23;;;2.10;99.90;;;;;;5020124;28;20224;-80
2020/12/20 10:08:15;;;;;;;5.83;5.20;;;2.10;99.90;;;;;;5021520;28;20236;-80
2020/12/20 10:10:43;;;;;;;8.97;5.97;;;2.10;99.90;;;;;;5021645;28;20256;-80
2020/12/20 10:13:10;;;;;;;7.73;5.40;;;2.10;99.90;;;;;;5023548;28;20666;-81
2020/12/20 10:15:37;;;;;;;7.83;5.90;;;2.10;99.90;;;;;;5021904;28;20554;-81
2020/12/20 10:18:04;;;;;;;7.23;6.00;;;2.10;99.90;;;;;;5023500;28;20205;-81
2020/12/20 10:20:31;;;;;;;6.43;5.17;;;2.20;99.90;;;;;;5021874;28;20201;-80
2020/12/20 10:22:59;;;;;;;7.77;6.10;;;2.20;99.90;;;;;;5021703;28;20209;-79
2020/12/20 10:25:27;;;;;;;7.33;6.07;;;2.20;99.90;;;;;;5023322;28;20233;-80
2020/12/20 10:27:54;;;;;;;6.90;5.20;;;2.20;99.90;;;;;;5042826;28;20208;-81
2020/12/20 10:30:22;;;;;;;7.47;5.70;;;2.20;99.90;;;;;;5043795;28;20517;-81
2020/12/20 10:32:49;;;;;;;8.03;6.03;;;2.20;99.90;;;;;;5043327;28;20200;-80
2020/12/20 10:35:23;;;;;;;7.57;5.87;;;2.20;99.90;;;;;;5024391;28;20213;-80
2020/12/20 10:37:55;;;;;;;6.77;5.30;;;2.20;99.90;;;;;;5024024;28;20223;-80
2020/12/20 10:40:24;;;;;;;8.07;6.40;;;2.20;99.90;;;;;;5024659;28;20536;-79
2020/12/20 10:42:51;;;;;;;8.30;6.20;;;2.20;99.90;;;;;;5018317;28;20579;-79
2020/12/20 10:45:19;;;;;;;7.93;6.13;;;2.20;99.90;;;;;;5015892;28;20224;-81
2020/12/20 10:47:46;;;;;;;8.30;6.63;;;2.20;99.90;;;;;;5016628;28;20201;-81
2020/12/20 10:50:14;;;;;;;9.27;6.63;;;2.20;99.90;;;;;;5012663;28;20209;-80
2020/12/20 10:52:41;;;;;;;7.40;6.10;;;2.20;99.90;;;;;;5012830;28;20247;-80
2020/12/20 10:55:08;;;;;;;8.37;6.03;;;2.20;99.90;;;;;;5029162;28;20196;-79
2020/12/20 10:57:35;;;;;;;7.53;5.60;;;2.30;99.90;;;;;;5029360;28;20571;-79
2020/12/20 11:00:04;;;;;;;6.90;5.70;;;2.30;99.90;;;;;;5028915;28;20302;-79
2020/12/20 11:02:32;;;;;;;8.43;5.80;;;2.30;99.90;;;;;;5029224;28;20284;-79
2020/12/20 11:04:59;;;;;;;7.30;6.07;;;2.30;99.90;;;;;;5012288;28;20221;-79
2020/12/20 11:07:27;;;;;;;7.40;5.33;;;2.30;99.90;;;;;;5008958;28;20209;-79
2020/12/20 11:09:54;;;;;;;6.83;5.70;;;2.30;99.90;;;;;;5009020;28;20200;-79
2020/12/20 11:12:21;;;;;;;7.90;5.27;;;2.30;99.90;;;;;;5008909;28;20197;-79
2020/12/20 11:14:48;;;;;;;6.50;5.13;;;2.30;99.90;;;;;;5008909;28;20209;-79
2020/12/20 11:17:14;;;;;;;6.20;4.80;;;2.30;99.90;;;;;;5010118;28;20703;-79
2020/12/20 11:19:42;;;;;;;7.63;5.30;;;2.30;99.90;;;;;;5009023;28;20283;-79
2020/12/20 11:22:09;;;;;;;5.60;4.30;;;2.30;99.90;;;;;;5010801;28;20291;-80
2020/12/20 11:24:36;;;;;;;7.50;5.03;;;2.30;99.90;;;;;;5015835;28;20221;-80
2020/12/20 11:27:03;;;;;;;5.57;4.03;;;2.30;99.90;;;;;;5032172;28;20271;-79
2020/12/20 11:29:30;;;;;;;4.93;3.97;;;2.30;99.90;;;;;;5037417;28;20403;-80
2020/12/20 11:31:57;;;;;;;7.30;4.93;;;2.30;99.90;;;;;;5039215;28;20199;-81
2020/12/20 11:34:24;;;;;;;6.43;5.23;;;2.30;99.90;;;;;;5024763;28;20205;-81
2020/12/20 11:36:51;;;;;;;6.70;5.20;;;2.30;99.90;;;;;;5016423;28;20654;-80
2020/12/20 11:39:22;;;;;;;6.90;5.43;;;2.30;99.90;;;;;;5017432;28;20205;-80
2020/12/20 11:41:49;;;;;;;6.03;5.03;;;2.40;99.90;;;;;;5018400;28;20522;-80
2020/12/20 11:44:17;;;;;;;7.03;4.53;;;2.30;99.90;;;;;;5018412;28;20221;-80
2020/12/20 11:46:43;;;;;;;6.87;5.30;;;2.30;99.90;;;;;;5017766;28;20228;-80
2020/12/20 11:49:10;;;;;;;6.97;5.23;;;2.30;99.90;;;;;;5018379;28;20228;-80
2020/12/20 11:51:36;;;;;;;5.93;5.10;;;2.30;99.90;;;;;;5018293;28;20209;-81
2020/12/20 11:54:03;;;;;;;6.57;5.37;;;2.30;99.90;;;;;;5018510;28;20571;-79
2020/12/20 11:56:30;;;;;;;6.83;4.83;;;2.30;99.90;;;;;;5018574;28;20227;-80
2020/12/20 11:58:57;;;;;;;7.43;5.43;;;2.30;99.90;;;;;;5019507;28;20201;-79
2020/12/20 12:01:30;;;;;;;7.10;5.37;;;2.40;99.90;;;;;;5019590;28;20261;-81
2020/12/20 12:03:57;;;;;;;7.03;5.40;;;2.40;99.90;;;;;;5020208;28;20197;-80
2020/12/20 12:06:24;;;;;;;7.83;5.93;;;2.40;99.90;;;;;;5018986;28;20225;-80
2020/12/20 12:08:51;;;;;;;7.80;5.67;;;2.40;99.90;;;;;;5019224;28;20205;-81
2020/12/20 12:11:19;;;;;;;7.37;5.63;;;2.40;99.90;;;;;;5020793;28;20205;-80
2020/12/20 12:13:47;;;;;;;6.77;5.33;;;2.40;99.90;;;;;;5019641;28;20208;-79
2020/12/20 12:16:18;;;;;;;8.63;5.30;;;2.40;99.90;;;;;;5014831;28;20204;-79
2020/12/20 12:18:45;;;;;;;6.80;5.23;;;2.40;99.90;;;;;;5015903;28;20235;-79
2020/12/20 12:21:15;;;;;;;8.60;5.70;;;2.40;99.90;;;;;;5013909;28;20197;-79
2020/12/20 12:23:46;;;;;;;7.30;5.57;;;2.40;99.90;;;;;;5013701;28;20193;-79
2020/12/20 12:26:26;;;;;;;6.10;5.27;;;2.40;99.90;;;;;;5024554;28;20240;-80
2020/12/20 12:28:53;;;;;;;7.37;5.73;;;2.40;99.90;;;;;;5034750;28;20200;-80
2020/12/20 12:31:20;;;;;;;6.80;5.27;;;2.50;99.90;;;;;;5035001;28;20203;-80
2020/12/20 12:33:47;;;;;;;6.10;5.13;;;2.40;99.90;;;;;;5028343;28;20205;-79
2020/12/20 12:36:14;;;;;;;7.90;5.67;;;2.50;99.90;;;;;;5015332;28;20716;-80
2020/12/20 12:38:41;;;;;;;7.57;5.87;;;2.40;99.90;;;;;;5018142;28;20196;-80
2020/12/20 12:41:08;;;;;;;8.90;5.43;;;2.40;99.90;;;;;;5018014;28;20236;-80
2020/12/20 12:43:36;;;;;;;7.67;5.60;;;2.40;99.90;;;;;;5017751;28;20204;-80
2020/12/20 12:46:02;;;;;;;6.87;5.40;;;2.40;99.90;;;;;;5018002;28;20224;-79
2020/12/20 12:48:29;;;;;;;8.47;5.40;;;2.50;99.90;;;;;;5021134;28;20197;-79
2020/12/20 12:50:57;;;;;;;6.63;5.10;;;2.50;99.90;;;;;;5020902;28;20204;-79
2020/12/20 12:53:25;;;;;;;6.77;5.27;;;2.40;99.90;;;;;;5019930;28;20215;-80
2020/12/20 12:55:51;;;;;;;8.30;5.77;;;2.40;99.90;;;;;;5021006;28;20201;-79
2020/12/20 12:58:18;;;;;;;8.30;5.23;;;2.40;99.90;;;;;;5021050;28;20594;-79
2020/12/20 13:00:46;;;;;;;7.17;5.43;;;2.50;99.90;;;;;;5020628;28;20243;-80
2020/12/20 13:03:13;;;;;;;9.77;6.30;;;2.40;99.90;;;;;;5021250;28;20208;-80